createdAt,value
2023-06-30T00:00:12.877Z,4.50
2023-06-30T00:03:01.030Z,6.00
2023-06-30T00:05:29.536Z,5.00
2023-06-30T00:07:59.272Z,5.40
2023-06-30T00:10:26.363Z,4.30
2023-06-30T00:12:53.297Z,5.70
2023-06-30T00:15:20.369Z,5.70
2023-06-30T00:17:49.043Z,4.30
2023-06-30T00:20:16.281Z,5.00
2023-06-30T00:22:43.411Z,4.30
2023-06-30T00:25:12.127Z,2.70
2023-06-30T00:27:39.703Z,4.60
2023-06-30T00:30:07.246Z,4.90
2023-06-30T00:32:34.784Z,4.90
2023-06-30T00:35:01.800Z,5.40
2023-06-30T00:37:28.745Z,5.10
2023-06-30T00:39:55.592Z,9.30
2023-06-30T00:42:24.352Z,4.00
2023-06-30T00:44:51.147Z,4.60
2023-06-30T00:47:19.309Z,4.80
2023-06-30T00:49:47.099Z,5.20
2023-06-30T00:52:14.015Z,6.10
2023-06-30T00:54:41.432Z,4.50
2023-06-30T00:57:08.355Z,5.20
2023-06-30T00:59:35.132Z,5.50
2023-06-30T01:02:13.169Z,4.70
2023-06-30T01:04:57.625Z,5.60
2023-06-30T01:07:49.905Z,6.00
2023-06-30T01:10:21.210Z,4.70
2023-06-30T01:12:48.755Z,4.80
2023-06-30T01:15:16.432Z,5.90
2023-06-30T01:17:47.135Z,10.00
2023-06-30T01:20:16.803Z,5.60
2023-06-30T01:23:20.686Z,5.20
2023-06-30T01:25:49.315Z,6.00
2023-06-30T01:28:17.239Z,5.20
2023-06-30T01:30:44.562Z,4.60
2023-06-30T01:33:12.700Z,6.00
2023-06-30T01:35:39.513Z,4.50
2023-06-30T01:38:06.468Z,5.60
2023-06-30T01:40:33.570Z,3.80
2023-06-30T01:43:00.663Z,4.20
2023-06-30T01:45:29.774Z,5.70
2023-06-30T01:47:58.493Z,5.10
2023-06-30T01:50:32.550Z,4.10
2023-06-30T01:53:00.417Z,4.70
2023-06-30T01:55:27.417Z,4.20
2023-06-30T01:57:54.199Z,6.60
2023-06-30T02:00:21.200Z,5.30
2023-06-30T02:02:48.079Z,4.30
2023-06-30T02:05:15.132Z,4.00
2023-06-30T02:07:42.118Z,4.00
2023-06-30T02:10:09.419Z,8.10
2023-06-30T02:12:36.609Z,4.00
2023-06-30T02:15:05.245Z,5.60
2023-06-30T02:17:33.287Z,4.90
2023-06-30T02:20:00.878Z,8.80
2023-06-30T02:22:28.041Z,4.80
2023-06-30T02:24:56.236Z,4.10
2023-06-30T02:27:24.979Z,5.30
2023-06-30T02:29:52.249Z,6.20
2023-06-30T02:32:19.501Z,4.80
2023-06-30T02:34:46.422Z,5.10
2023-06-30T02:37:13.658Z,5.30
2023-06-30T02:39:41.702Z,5.20
2023-06-30T02:42:08.823Z,4.90
2023-06-30T02:44:35.860Z,5.20
2023-06-30T02:47:04.010Z,4.20
2023-06-30T02:49:31.880Z,8.50
2023-06-30T02:52:01.093Z,3.70
2023-06-30T02:54:28.321Z,5.20
2023-06-30T02:56:55.444Z,8.40
2023-06-30T02:59:23.106Z,9.70
2023-06-30T03:01:50.375Z,5.20
2023-06-30T03:04:17.880Z,5.00
2023-06-30T03:06:44.656Z,4.00
2023-06-30T03:09:11.621Z,3.40
2023-06-30T03:11:38.853Z,4.30
2023-06-30T03:14:05.688Z,3.90
2023-06-30T03:16:39.884Z,4.20
2023-06-30T03:19:07.541Z,4.50
2023-06-30T03:21:34.422Z,3.40
2023-06-30T03:24:01.325Z,3.50
2023-06-30T03:26:29.327Z,4.30
2023-06-30T03:28:56.144Z,5.00
2023-06-30T03:31:24.291Z,4.30
2023-06-30T03:33:51.499Z,4.40
2023-06-30T03:36:18.326Z,5.30
2023-06-30T03:38:45.541Z,6.80
2023-06-30T03:41:12.585Z,6.10
2023-06-30T03:43:39.436Z,4.70
2023-06-30T03:46:06.304Z,5.10
2023-06-30T03:48:33.151Z,4.20
2023-06-30T03:51:00.200Z,6.00
2023-06-30T03:53:27.261Z,5.10
2023-06-30T03:55:54.292Z,4.60
2023-06-30T03:58:21.071Z,5.20
2023-06-30T04:00:47.896Z,5.70
2023-06-30T04:03:15.455Z,5.40
2023-06-30T04:05:42.934Z,4.30
2023-06-30T04:08:10.233Z,5.60
2023-06-30T04:10:37.182Z,4.30
2023-06-30T04:13:07.521Z,4.30
2023-06-30T04:15:34.321Z,6.30
2023-06-30T04:18:01.246Z,5.40
2023-06-30T04:20:28.081Z,3.60
2023-06-30T04:22:54.930Z,5.60
2023-06-30T04:25:21.725Z,7.80
2023-06-30T04:27:48.632Z,3.80
2023-06-30T04:30:15.451Z,3.60
2023-06-30T04:32:42.325Z,3.20
2023-06-30T04:35:09.456Z,5.60
2023-06-30T04:37:40.880Z,4.00
2023-06-30T04:40:08.974Z,4.50
2023-06-30T04:42:36.954Z,4.30
2023-06-30T04:45:05.779Z,4.50
2023-06-30T04:47:32.777Z,4.90
2023-06-30T04:49:59.907Z,3.20
2023-06-30T04:52:27.057Z,6.90
2023-06-30T04:54:55.700Z,4.50
2023-06-30T04:57:23.378Z,4.70
2023-06-30T04:59:53.284Z,5.40
2023-06-30T05:02:20.225Z,4.80
2023-06-30T05:04:47.209Z,5.80
2023-06-30T05:07:14.084Z,5.30
2023-06-30T05:09:40.993Z,5.20
2023-06-30T05:12:08.282Z,5.10
2023-06-30T05:14:35.534Z,6.70
2023-06-30T05:17:02.419Z,4.70
2023-06-30T05:19:29.293Z,5.80
2023-06-30T05:21:56.248Z,5.60
2023-06-30T05:24:23.036Z,3.70
2023-06-30T05:26:50.413Z,5.30
2023-06-30T05:29:17.235Z,3.90
2023-06-30T05:31:44.278Z,5.50
2023-06-30T05:34:16.108Z,5.70
2023-06-30T05:36:44.659Z,6.10
2023-06-30T05:39:12.569Z,6.80
2023-06-30T05:41:39.368Z,5.70
2023-06-30T05:44:09.893Z,5.40
2023-06-30T05:46:40.269Z,4.00
2023-06-30T05:49:07.384Z,3.40
2023-06-30T05:51:35.667Z,6.00
2023-06-30T05:54:03.891Z,6.00
2023-06-30T05:56:31.511Z,4.60
2023-06-30T05:58:59.355Z,4.80
2023-06-30T06:01:26.272Z,4.20
2023-06-30T06:03:53.344Z,4.10
2023-06-30T06:06:22.552Z,4.70
2023-06-30T06:08:49.588Z,5.10
2023-06-30T06:11:16.411Z,4.50
2023-06-30T06:13:43.227Z,5.80
2023-06-30T06:16:10.105Z,4.70
2023-06-30T06:18:36.991Z,4.90
2023-06-30T06:21:05.017Z,4.20
2023-06-30T06:23:31.955Z,4.80
2023-06-30T06:25:58.996Z,4.60
2023-06-30T06:28:25.977Z,5.40
2023-06-30T06:30:52.791Z,5.10
2023-06-30T06:33:19.676Z,4.60
2023-06-30T06:35:47.113Z,5.00
2023-06-30T06:38:17.946Z,4.30
2023-06-30T06:40:48.889Z,6.00
2023-06-30T06:43:15.824Z,4.50
2023-06-30T06:45:43.273Z,4.70
2023-06-30T06:48:26.543Z,4.10
2023-06-30T06:50:55.455Z,4.50
2023-06-30T06:53:29.613Z,7.40
2023-06-30T06:55:57.537Z,5.30
2023-06-30T06:58:28.783Z,6.60
2023-06-30T07:00:56.336Z,3.80
2023-06-30T07:03:23.211Z,5.10
2023-06-30T07:05:50.601Z,6.00
2023-06-30T07:08:21.572Z,4.80
2023-06-30T07:10:49.229Z,4.60
2023-06-30T07:13:18.601Z,4.20
2023-06-30T07:15:46.352Z,4.80
2023-06-30T07:18:13.741Z,5.40
2023-06-30T07:20:40.775Z,4.20
2023-06-30T07:23:07.608Z,3.50
2023-06-30T07:25:34.413Z,3.40
2023-06-30T07:28:01.515Z,4.30
2023-06-30T07:30:28.795Z,4.50
2023-06-30T07:32:56.122Z,3.90
2023-06-30T07:35:23.743Z,4.10
2023-06-30T07:37:51.645Z,4.10
2023-06-30T07:40:20.479Z,4.30
2023-06-30T07:42:49.029Z,5.90
2023-06-30T07:45:17.205Z,4.30
2023-06-30T07:47:48.675Z,3.30
2023-06-30T07:50:16.968Z,5.60
2023-06-30T07:52:49.854Z,2.60
2023-06-30T07:55:18.031Z,3.90
2023-06-30T07:57:46.974Z,4.20
2023-06-30T08:00:18.808Z,3.80
2023-06-30T08:02:47.013Z,2.90
2023-06-30T08:05:14.681Z,4.70
2023-06-30T08:07:49.019Z,4.60
2023-06-30T08:10:18.734Z,4.20
2023-06-30T08:12:45.751Z,4.10
2023-06-30T08:15:12.693Z,3.00
2023-06-30T08:17:53.057Z,4.40
2023-06-30T08:20:25.170Z,3.00
2023-06-30T08:22:52.863Z,7.30
2023-06-30T08:25:24.123Z,5.10
2023-06-30T08:27:52.142Z,6.60
2023-06-30T08:30:21.201Z,4.70
2023-06-30T08:32:51.759Z,4.70
2023-06-30T08:35:19.013Z,2.80
2023-06-30T08:37:49.858Z,3.90
2023-06-30T08:40:30.186Z,4.10
2023-06-30T08:43:04.386Z,9.90
2023-06-30T08:45:31.358Z,3.50
2023-06-30T08:48:08.403Z,4.40
2023-06-30T08:50:36.163Z,5.00
2023-06-30T08:53:04.529Z,3.10
2023-06-30T08:55:31.507Z,3.50
2023-06-30T08:58:00.688Z,2.90
2023-06-30T09:00:34.085Z,3.20
2023-06-30T09:03:05.044Z,6.20
2023-06-30T09:05:37.467Z,4.80
2023-06-30T09:08:11.420Z,9.30
2023-06-30T09:10:38.923Z,3.20
2023-06-30T09:13:06.722Z,2.70
2023-06-30T09:15:34.652Z,2.80
2023-06-30T09:18:02.014Z,3.10
2023-06-30T09:20:28.845Z,3.40
2023-06-30T09:22:57.517Z,2.60
2023-06-30T09:25:27.502Z,6.10
2023-06-30T09:27:55.836Z,3.00
2023-06-30T09:30:32.887Z,2.50
2023-06-30T09:33:00.016Z,2.90
2023-06-30T09:35:35.947Z,3.90
2023-06-30T09:38:02.786Z,6.90
2023-06-30T09:40:29.633Z,6.20
2023-06-30T09:42:56.545Z,4.50
2023-06-30T09:45:23.308Z,3.20
2023-06-30T09:47:56.360Z,3.20
2023-06-30T09:50:28.290Z,4.00
2023-06-30T09:52:55.157Z,3.70
2023-06-30T09:55:22.202Z,4.40
2023-06-30T09:57:53.258Z,4.10
2023-06-30T10:00:34.785Z,1.90
2023-06-30T10:03:05.846Z,3.00
2023-06-30T10:05:33.186Z,2.70
2023-06-30T10:08:03.335Z,4.00
2023-06-30T10:10:31.500Z,7.40
2023-06-30T10:12:59.387Z,2.30
2023-06-30T10:15:26.892Z,5.60
2023-06-30T10:17:56.971Z,2.90
2023-06-30T10:20:38.058Z,2.90
2023-06-30T10:23:06.298Z,3.10
2023-06-30T10:25:37.685Z,3.00
2023-06-30T10:28:09.227Z,5.20
2023-06-30T10:30:37.497Z,3.60
2023-06-30T10:33:04.621Z,4.00
2023-06-30T10:35:33.073Z,6.60
2023-06-30T10:38:00.192Z,4.20
2023-06-30T10:40:28.465Z,4.70
2023-06-30T10:42:57.449Z,4.70
2023-06-30T10:45:33.684Z,3.00
2023-06-30T10:48:13.313Z,3.30
2023-06-30T10:50:45.166Z,4.00
2023-06-30T10:53:18.901Z,3.90
2023-06-30T10:55:47.919Z,3.30
2023-06-30T10:58:25.444Z,5.60
2023-06-30T11:01:06.155Z,4.30
2023-06-30T11:03:58.571Z,3.10
2023-06-30T11:06:26.586Z,3.30
2023-06-30T11:09:00.726Z,4.30
2023-06-30T11:11:30.135Z,4.70
2023-06-30T11:14:07.354Z,4.00
2023-06-30T11:17:01.228Z,6.10
2023-06-30T11:19:28.192Z,3.20
2023-06-30T11:22:30.783Z,4.20
2023-06-30T11:24:57.797Z,3.70
2023-06-30T11:27:29.156Z,5.90
2023-06-30T11:29:59.768Z,7.50
2023-06-30T11:32:28.296Z,4.30
2023-06-30T11:34:56.608Z,3.90
2023-06-30T11:37:23.956Z,4.60
2023-06-30T11:39:55.682Z,4.70
2023-06-30T11:42:23.085Z,3.10
2023-06-30T11:44:50.816Z,3.00
2023-06-30T11:47:19.207Z,2.70
2023-06-30T11:49:48.083Z,2.30
2023-06-30T11:52:16.622Z,5.70
2023-06-30T11:54:43.402Z,6.90
2023-06-30T11:57:10.640Z,2.40
2023-06-30T11:59:37.997Z,2.80
2023-06-30T12:02:04.933Z,2.80
2023-06-30T12:04:36.878Z,2.90
2023-06-30T12:07:05.945Z,3.20
2023-06-30T12:09:34.069Z,3.60
2023-06-30T12:12:01.169Z,4.70
2023-06-30T12:14:29.265Z,2.50
2023-06-30T12:16:56.704Z,1.80
2023-06-30T12:19:28.456Z,2.00
2023-06-30T12:22:00.417Z,5.80
2023-06-30T12:24:32.591Z,2.10
2023-06-30T12:27:04.072Z,2.50
2023-06-30T12:29:33.289Z,2.80
2023-06-30T12:32:01.085Z,3.90
2023-06-30T12:34:32.850Z,2.60
2023-06-30T12:37:00.483Z,2.20
2023-06-30T12:39:28.489Z,3.20
2023-06-30T12:41:56.078Z,3.80
2023-06-30T12:44:23.103Z,3.00
2023-06-30T12:47:03.749Z,3.30
2023-06-30T12:49:30.597Z,1.90
2023-06-30T12:51:59.897Z,3.40
2023-06-30T12:54:28.811Z,4.90
2023-06-30T12:56:55.629Z,3.60
2023-06-30T12:59:23.352Z,2.00
2023-06-30T13:01:50.337Z,1.70
2023-06-30T13:04:17.235Z,2.30
2023-06-30T13:06:44.123Z,2.50
2023-06-30T13:09:11.041Z,7.40
2023-06-30T13:11:38.021Z,1.80
2023-06-30T13:14:05.061Z,3.00
2023-06-30T13:16:32.264Z,2.40
2023-06-30T13:19:00.241Z,2.60
2023-06-30T13:21:27.190Z,2.00
2023-06-30T13:23:54.079Z,2.00
2023-06-30T13:26:21.580Z,2.30
2023-06-30T13:28:48.454Z,1.90
2023-06-30T13:31:15.673Z,3.30
2023-06-30T13:33:42.788Z,3.20
2023-06-30T13:36:11.217Z,1.80
2023-06-30T13:38:38.324Z,3.30
2023-06-30T13:41:05.249Z,2.10
2023-06-30T13:43:32.094Z,3.50
2023-06-30T13:46:00.119Z,2.40
2023-06-30T13:48:27.053Z,2.40
2023-06-30T13:50:53.939Z,1.80
2023-06-30T13:53:20.765Z,2.40
2023-06-30T13:55:48.016Z,2.00
2023-06-30T13:58:15.130Z,2.10
2023-06-30T14:00:42.095Z,2.20
2023-06-30T14:03:09.156Z,5.70
2023-06-30T14:05:36.334Z,3.10
2023-06-30T14:08:03.641Z,3.00
2023-06-30T14:10:31.888Z,2.90
2023-06-30T14:12:58.806Z,2.20
2023-06-30T14:15:26.936Z,2.80
2023-06-30T14:17:53.802Z,2.90
2023-06-30T14:20:20.721Z,3.50
2023-06-30T14:22:47.587Z,3.90
2023-06-30T14:25:22.536Z,2.70
2023-06-30T14:27:50.668Z,4.50
2023-06-30T14:30:18.128Z,3.40
2023-06-30T14:32:45.297Z,2.90
2023-06-30T14:35:12.472Z,3.10
2023-06-30T14:37:39.491Z,3.00
2023-06-30T14:40:07.076Z,6.20
2023-06-30T14:42:34.015Z,4.60
2023-06-30T14:45:01.174Z,3.00
2023-06-30T14:47:28.300Z,3.70
2023-06-30T14:49:57.928Z,2.80
2023-06-30T14:52:25.713Z,7.10
2023-06-30T14:54:52.593Z,2.00
2023-06-30T14:57:19.563Z,3.40
2023-06-30T14:59:46.482Z,3.40
2023-06-30T15:02:14.665Z,4.00
2023-06-30T15:04:41.904Z,2.20
2023-06-30T15:07:09.037Z,2.90
2023-06-30T15:09:36.316Z,4.50
2023-06-30T15:12:07.146Z,2.10
2023-06-30T15:14:35.727Z,1.80
2023-06-30T15:17:02.835Z,2.40
2023-06-30T15:19:30.064Z,2.90
2023-06-30T15:21:56.949Z,2.30
2023-06-30T15:24:23.792Z,1.60
2023-06-30T15:26:50.713Z,2.50
2023-06-30T15:29:17.543Z,2.20
2023-06-30T15:31:44.711Z,2.00
2023-06-30T15:34:12.032Z,2.70
2023-06-30T15:36:39.068Z,1.70
2023-06-30T15:39:06.057Z,1.80
2023-06-30T15:41:33.089Z,2.30
2023-06-30T15:44:00.073Z,2.00
2023-06-30T15:46:27.053Z,1.80
2023-06-30T15:48:54.677Z,1.20
2023-06-30T15:51:21.681Z,4.40
2023-06-30T15:53:48.935Z,1.70
2023-06-30T15:56:16.156Z,2.40
2023-06-30T15:58:43.059Z,2.10
2023-06-30T16:01:10.554Z,3.00
2023-06-30T16:03:38.766Z,1.40
2023-06-30T16:06:05.928Z,1.30
2023-06-30T16:08:33.458Z,2.10
2023-06-30T16:11:00.301Z,5.70
2023-06-30T16:13:27.139Z,1.60
2023-06-30T16:15:54.222Z,1.80
2023-06-30T16:18:21.139Z,1.30
2023-06-30T16:20:48.007Z,7.40
2023-06-30T16:23:15.041Z,1.70
2023-06-30T16:25:42.021Z,3.40
2023-06-30T16:28:09.114Z,3.30
2023-06-30T16:30:37.059Z,2.50
2023-06-30T16:33:04.198Z,1.40
2023-06-30T16:35:31.807Z,1.40
2023-06-30T16:37:58.924Z,1.90
2023-06-30T16:40:26.162Z,2.50
2023-06-30T16:42:53.530Z,3.60
2023-06-30T16:45:20.466Z,1.80
2023-06-30T16:47:48.101Z,3.70
2023-06-30T16:50:16.265Z,1.80
2023-06-30T16:52:43.404Z,3.00
2023-06-30T16:55:11.116Z,3.20
2023-06-30T16:57:39.790Z,1.90
2023-06-30T17:00:08.940Z,1.40
2023-06-30T17:02:36.482Z,3.60
2023-06-30T17:05:04.706Z,2.50
2023-06-30T17:07:32.134Z,2.30
2023-06-30T17:09:59.049Z,2.40
2023-06-30T17:12:26.135Z,2.20
2023-06-30T17:14:53.308Z,3.70
2023-06-30T17:17:21.503Z,2.50
2023-06-30T17:19:50.544Z,2.40
2023-06-30T17:22:17.507Z,2.50
2023-06-30T17:24:44.685Z,3.80
2023-06-30T17:27:11.595Z,2.70
2023-06-30T17:29:38.543Z,3.00
2023-06-30T17:32:06.410Z,2.30
2023-06-30T17:34:33.249Z,3.00
2023-06-30T17:37:07.365Z,3.50
2023-06-30T17:39:35.151Z,2.60
2023-06-30T17:42:02.506Z,5.60
2023-06-30T17:44:30.702Z,2.40
2023-06-30T17:46:59.019Z,4.80
2023-06-30T17:49:30.924Z,3.10
2023-06-30T17:51:59.486Z,2.40
2023-06-30T17:54:27.094Z,3.30
2023-06-30T17:56:54.257Z,3.30
2023-06-30T17:59:21.207Z,3.40
2023-06-30T18:01:48.415Z,3.40
2023-06-30T18:04:15.846Z,2.80
2023-06-30T18:07:02.489Z,4.10
2023-06-30T18:09:30.156Z,3.60
2023-06-30T18:12:01.030Z,2.90
2023-06-30T18:14:29.300Z,3.30
2023-06-30T18:16:56.536Z,3.20
2023-06-30T18:19:23.891Z,3.30
2023-06-30T18:21:52.367Z,2.50
2023-06-30T18:24:19.588Z,4.30
2023-06-30T18:26:48.460Z,4.00
2023-06-30T18:29:16.695Z,2.60
2023-06-30T18:31:43.962Z,3.10
2023-06-30T18:34:11.208Z,3.60
2023-06-30T18:36:38.267Z,4.80
2023-06-30T18:39:05.320Z,2.10
2023-06-30T18:41:32.463Z,4.00
2023-06-30T18:43:59.397Z,2.80
2023-06-30T18:46:30.094Z,2.50
2023-06-30T18:48:57.630Z,2.60
2023-06-30T18:51:25.896Z,4.10
2023-06-30T18:53:53.793Z,3.40
2023-06-30T18:56:22.324Z,3.90
2023-06-30T18:58:59.603Z,4.20
2023-06-30T19:01:27.822Z,4.30
2023-06-30T19:03:55.229Z,7.60
2023-06-30T19:06:24.743Z,5.70
2023-06-30T19:08:53.831Z,3.70
2023-06-30T19:11:21.776Z,3.70
2023-06-30T19:13:48.992Z,2.60
2023-06-30T19:16:15.940Z,3.00
2023-06-30T19:18:43.465Z,3.70
2023-06-30T19:21:10.450Z,3.70
2023-06-30T19:23:39.028Z,4.20
2023-06-30T19:26:09.558Z,5.40
2023-06-30T19:28:40.917Z,3.20
2023-06-30T19:31:08.447Z,3.50
2023-06-30T19:33:36.930Z,3.40
2023-06-30T19:36:04.100Z,5.00
2023-06-30T19:38:30.899Z,3.70
2023-06-30T19:40:57.793Z,4.80
2023-06-30T19:43:24.819Z,3.30
2023-06-30T19:45:52.137Z,7.00
2023-06-30T19:48:20.618Z,2.90
2023-06-30T19:50:47.717Z,6.30
2023-06-30T19:53:15.045Z,4.30
2023-06-30T19:55:42.028Z,5.60
2023-06-30T19:58:10.606Z,8.10
2023-06-30T20:00:38.414Z,4.40
2023-06-30T20:03:05.430Z,7.50
2023-06-30T20:05:32.385Z,6.80
2023-06-30T20:07:59.298Z,3.70
2023-06-30T20:10:26.171Z,7.00
2023-06-30T20:12:53.659Z,5.10
2023-06-30T20:15:20.653Z,3.80
2023-06-30T20:17:47.686Z,12.00
2023-06-30T20:20:14.815Z,13.00
2023-06-30T20:22:42.306Z,36.10
2023-06-30T20:25:10.663Z,40.10
2023-06-30T20:27:38.764Z,14.10
2023-06-30T20:30:07.059Z,9.10
2023-06-30T20:32:34.025Z,11.90
2023-06-30T20:35:00.909Z,4.40
2023-06-30T20:37:27.872Z,10.20
2023-06-30T20:39:56.916Z,7.30
2023-06-30T20:42:24.267Z,7.00
2023-06-30T20:44:51.468Z,3.80
2023-06-30T20:47:18.658Z,3.50
2023-06-30T20:49:45.758Z,4.20
2023-06-30T20:52:13.964Z,6.50
2023-06-30T20:54:40.806Z,4.60
2023-06-30T20:57:07.658Z,7.10
2023-06-30T20:59:34.504Z,5.60
2023-06-30T21:02:02.102Z,6.30
2023-06-30T21:04:29.435Z,5.90
2023-06-30T21:06:56.427Z,4.90
2023-06-30T21:09:23.410Z,4.70
2023-06-30T21:11:50.301Z,5.70
2023-06-30T21:14:20.774Z,3.90
2023-06-30T21:16:50.555Z,4.70
2023-06-30T21:19:17.523Z,4.70
2023-06-30T21:21:44.457Z,4.70
2023-06-30T21:24:11.253Z,5.50
2023-06-30T21:26:38.876Z,4.20
2023-06-30T21:29:06.048Z,3.90
2023-06-30T21:31:33.052Z,3.50
2023-06-30T21:34:00.106Z,7.80
2023-06-30T21:36:27.491Z,5.60
2023-06-30T21:38:54.387Z,3.70
2023-06-30T21:41:22.388Z,4.30
2023-06-30T21:43:49.354Z,4.00
2023-06-30T21:46:16.985Z,5.00
2023-06-30T21:48:44.739Z,5.50
2023-06-30T21:51:11.957Z,4.10
2023-06-30T21:53:38.905Z,3.20
2023-06-30T21:56:05.742Z,3.80
2023-06-30T21:58:32.967Z,3.10
2023-06-30T22:01:00.174Z,4.50
2023-06-30T22:03:27.244Z,4.20
2023-06-30T22:05:55.818Z,5.50
2023-06-30T22:08:25.728Z,3.10
2023-06-30T22:10:53.103Z,4.70
2023-06-30T22:13:19.970Z,4.50
2023-06-30T22:15:47.001Z,5.20
2023-06-30T22:18:13.783Z,7.30
2023-06-30T22:20:41.920Z,6.10
2023-06-30T22:23:08.861Z,5.40
2023-06-30T22:25:35.855Z,4.90
2023-06-30T22:28:02.698Z,3.30
2023-06-30T22:30:29.596Z,4.00
2023-06-30T22:32:56.828Z,3.80
2023-06-30T22:35:23.919Z,4.50
2023-06-30T22:37:50.725Z,4.20
2023-06-30T22:40:18.018Z,5.70
2023-06-30T22:42:44.976Z,5.40
2023-06-30T22:45:12.373Z,3.30
2023-06-30T22:47:39.404Z,3.30
2023-06-30T22:50:09.694Z,4.10
2023-06-30T22:52:41.347Z,3.60
2023-06-30T22:55:09.163Z,7.10
2023-06-30T22:57:36.209Z,5.20
2023-06-30T23:00:04.868Z,4.90
2023-06-30T23:02:31.774Z,3.80
2023-06-30T23:04:58.782Z,4.10
2023-06-30T23:07:25.713Z,4.50
2023-06-30T23:09:52.922Z,4.50
2023-06-30T23:12:19.639Z,4.20
2023-06-30T23:14:46.507Z,6.50
2023-06-30T23:17:16.114Z,4.10
2023-06-30T23:19:48.471Z,8.70
2023-06-30T23:22:16.982Z,5.10
2023-06-30T23:24:47.523Z,4.80
2023-06-30T23:27:15.176Z,5.30
2023-06-30T23:29:45.278Z,4.90
2023-06-30T23:32:16.144Z,4.70
2023-06-30T23:34:43.715Z,3.50
2023-06-30T23:37:12.242Z,8.80
2023-06-30T23:39:40.288Z,11.40
2023-06-30T23:42:08.240Z,11.20
2023-06-30T23:44:35.585Z,6.80
2023-06-30T23:47:05.463Z,8.00
2023-06-30T23:49:33.029Z,8.60
2023-06-30T23:51:59.923Z,6.50
2023-06-30T23:54:26.807Z,8.10
2023-06-30T23:56:53.675Z,6.70
2023-06-30T23:59:20.699Z,9.30
